createdAt,value
2022-12-04T00:00:23.566Z,102038.69
2022-12-04T00:03:44.793Z,102048.09
2022-12-04T00:06:59.239Z,102041.22
2022-12-04T00:10:08.765Z,102043.81
2022-12-04T00:14:06.465Z,102036.13
2022-12-04T00:17:21.616Z,102036.94
2022-12-04T00:21:15.094Z,102046.38
2022-12-04T00:24:25.641Z,102040.41
2022-12-04T00:27:46.441Z,102039.56
2022-12-04T00:31:06.025Z,102042.16
2022-12-04T00:34:16.124Z,102047.34
2022-12-04T00:37:28.539Z,102043.03
2022-12-04T00:41:01.333Z,102050.78
2022-12-04T00:44:06.417Z,102049.88
2022-12-04T00:47:26.588Z,102043.88
2022-12-04T00:50:34.645Z,102047.28
2022-12-04T00:53:49.609Z,102048.13
2022-12-04T00:57:08.305Z,102048.19
2022-12-04T01:01:11.970Z,102039.53
2022-12-04T01:04:20.351Z,102043.09
2022-12-04T01:07:28.630Z,102037.88
2022-12-04T01:10:37.694Z,102043.03
2022-12-04T01:13:48.939Z,102035.28
2022-12-04T01:16:55.957Z,102028.28
2022-12-04T01:20:41.831Z,102039.53
2022-12-04T01:23:56.046Z,102030.91
2022-12-04T01:28:03.326Z,102034.38
2022-12-04T01:31:23.946Z,102036.97
2022-12-04T01:34:28.680Z,102038.63
2022-12-04T01:37:51.529Z,102037.75
2022-12-04T01:41:01.482Z,102046.31
2022-12-04T01:48:05.072Z,102045.50
2022-12-04T01:51:24.440Z,102041.22
2022-12-04T01:54:44.272Z,102047.22
2022-12-04T01:57:56.159Z,102041.09
2022-12-04T02:01:13.223Z,102054.94
2022-12-04T02:04:20.852Z,102055.84
2022-12-04T02:07:29.483Z,102056.69
2022-12-04T02:11:08.883Z,102060.16
2022-12-04T02:14:53.439Z,102047.22
2022-12-04T02:18:43.500Z,102041.19
2022-12-04T02:21:57.347Z,102037.69
2022-12-04T02:25:33.925Z,102028.28
2022-12-04T02:28:57.619Z,102030.91
2022-12-04T02:32:25.412Z,102034.38
2022-12-04T02:36:12.737Z,102034.41
2022-12-04T02:39:56.918Z,102032.75
2022-12-04T02:43:28.105Z,102031.88
2022-12-04T02:46:44.246Z,102021.44
2022-12-04T02:50:01.252Z,102020.53
2022-12-04T02:53:27.038Z,102006.75
2022-12-04T02:56:40.512Z,102002.44
2022-12-04T02:59:54.058Z,102015.44
2022-12-04T03:03:09.216Z,102005.06
2022-12-04T03:06:24.505Z,102010.31
2022-12-04T03:10:40.937Z,102013.81
2022-12-04T03:14:17.046Z,102025.94
2022-12-04T03:18:09.303Z,102034.59
2022-12-04T03:21:40.146Z,102038.06
2022-12-04T03:24:55.541Z,102039.75
2022-12-04T03:28:16.733Z,102041.41
2022-12-04T03:31:57.019Z,102037.03
2022-12-04T03:35:37.250Z,102039.69
2022-12-04T03:39:02.794Z,102040.63
2022-12-04T03:42:30.049Z,102047.56
2022-12-04T03:45:59.170Z,102041.47
2022-12-04T03:49:18.975Z,102039.72
2022-12-04T03:53:03.731Z,102038.84
2022-12-04T03:56:26.129Z,102041.47
2022-12-04T03:59:58.448Z,102053.59
2022-12-04T04:03:25.010Z,102047.56
2022-12-04T04:06:42.743Z,102048.41
2022-12-04T04:10:21.417Z,102040.69
2022-12-04T04:14:09.374Z,102038.16
2022-12-04T04:17:39.181Z,102043.31
2022-12-04T04:21:17.897Z,102038.19
2022-12-04T04:24:56.354Z,102043.34
2022-12-04T04:28:32.922Z,102041.66
2022-12-04T04:32:00.075Z,102046.00
2022-12-04T04:35:39.617Z,102052.09
2022-12-04T04:39:24.540Z,102048.59
2022-12-04T04:42:38.040Z,102045.97
2022-12-04T04:46:16.007Z,102050.28
2022-12-04T04:49:31.056Z,102048.59
2022-12-04T04:52:47.357Z,102055.56
2022-12-04T04:55:56.403Z,102049.53
2022-12-04T04:59:06.130Z,102058.19
2022-12-04T05:02:25.743Z,102050.47
2022-12-04T05:05:35.378Z,102045.28
2022-12-04T05:12:34.832Z,102050.50
2022-12-04T05:15:57.546Z,102053.09
2022-12-04T05:19:27.426Z,102057.47
2022-12-04T05:22:39.828Z,102048.84
2022-12-04T05:26:02.744Z,102046.25
2022-12-04T05:29:10.814Z,102054.88
2022-12-04T05:32:18.527Z,102064.38
2022-12-04T05:35:25.833Z,102069.56
2022-12-04T05:38:36.171Z,102060.94
2022-12-04T05:41:53.051Z,102065.25
2022-12-04T05:45:09.813Z,102070.47
2022-12-04T05:48:30.613Z,102075.66
2022-12-04T05:51:45.015Z,102078.25
2022-12-04T05:54:54.270Z,102080.88
2022-12-04T05:58:02.256Z,102078.28
2022-12-04T06:01:53.043Z,102085.16
2022-12-04T06:05:04.362Z,102080.84
2022-12-04T06:08:20.090Z,102072.22
2022-12-04T06:11:36.779Z,102080.06
2022-12-04T06:14:48.016Z,102074.88
2022-12-04T06:18:00.379Z,102080.91
2022-12-04T06:21:09.108Z,102080.06
2022-12-04T06:25:16.377Z,102079.22
2022-12-04T06:28:43.310Z,102076.59
2022-12-04T06:31:56.283Z,102081.78
2022-12-04T06:35:10.572Z,102074.03
2022-12-04T06:38:20.980Z,102078.31
2022-12-04T06:41:29.780Z,102074.00
2022-12-04T06:44:40.118Z,102083.44
2022-12-04T06:47:52.975Z,102092.13
2022-12-04T06:51:07.647Z,102093.78
2022-12-04T06:54:19.560Z,102094.69
2022-12-04T06:57:29.561Z,102101.56
2022-12-04T07:00:46.432Z,102092.97
2022-12-04T07:03:55.502Z,102101.56
2022-12-04T07:07:03.841Z,102094.66
2022-12-04T07:10:16.122Z,102081.66
2022-12-04T07:13:31.224Z,102086.78
2022-12-04T07:16:43.348Z,102087.59
2022-12-04T07:19:54.075Z,102083.25
2022-12-04T07:23:07.903Z,102088.34
2022-12-04T07:26:17.226Z,102090.03
2022-12-04T07:29:27.015Z,102098.63
2022-12-04T07:32:45.144Z,102092.56
2022-12-04T07:36:00.335Z,102096.84
2022-12-04T07:39:14.952Z,102104.56
2022-12-04T07:42:31.875Z,102095.16
2022-12-04T07:45:40.366Z,102098.63
2022-12-04T07:49:39.253Z,102103.72
2022-12-04T07:52:49.603Z,102108.09
2022-12-04T07:56:11.442Z,102103.00
2022-12-04T07:59:17.913Z,102109.06
2022-12-04T08:02:57.537Z,102117.75
2022-12-04T08:06:13.625Z,102110.00
2022-12-04T08:09:23.732Z,102098.81
2022-12-04T08:12:39.941Z,102106.59
2022-12-04T08:15:51.831Z,102108.38
2022-12-04T08:19:09.794Z,102108.31
2022-12-04T08:22:24.994Z,102111.81
2022-12-04T08:25:50.247Z,102106.69
2022-12-04T08:29:00.392Z,102117.09
2022-12-04T08:32:08.623Z,102122.28
2022-12-04T08:35:16.208Z,102110.28
2022-12-04T08:38:30.863Z,102115.47
2022-12-04T08:41:36.912Z,102116.41
2022-12-04T08:44:52.917Z,102116.41
2022-12-04T08:48:02.597Z,102116.44
2022-12-04T08:51:29.536Z,102116.50
2022-12-04T08:54:42.835Z,102116.56
2022-12-04T08:58:16.123Z,102122.63
2022-12-04T09:01:23.903Z,102116.63
2022-12-04T09:04:28.928Z,102109.75
2022-12-04T09:07:50.125Z,102125.31
2022-12-04T09:11:08.081Z,102122.75
2022-12-04T09:14:16.379Z,102117.56
2022-12-04T09:17:46.676Z,102119.28
2022-12-04T09:21:07.087Z,102120.19
2022-12-04T09:24:14.628Z,102109.84
2022-12-04T09:27:38.867Z,102115.09
2022-12-04T09:30:43.432Z,102111.66
2022-12-04T09:33:59.737Z,102106.50
2022-12-04T09:37:08.177Z,102113.47
2022-12-04T09:40:47.683Z,102105.69
2022-12-04T09:44:59.869Z,102097.03
2022-12-04T09:48:17.098Z,102099.63
2022-12-04T09:51:32.684Z,102102.25
2022-12-04T09:54:55.705Z,102099.69
2022-12-04T09:58:43.610Z,102093.63
2022-12-04T10:02:47.569Z,102097.97
2022-12-04T10:06:11.744Z,102099.75
2022-12-04T10:09:38.716Z,102098.03
2022-12-04T10:13:20.258Z,102101.50
2022-12-04T10:17:01.659Z,102101.53
2022-12-04T10:20:30.486Z,102099.81
2022-12-04T10:23:56.079Z,102090.31
2022-12-04T10:27:12.063Z,102084.28
2022-12-04T10:30:31.143Z,102086.91
2022-12-04T10:33:50.586Z,102085.19
2022-12-04T10:37:01.614Z,102092.97
2022-12-04T10:40:41.631Z,102075.63
2022-12-04T10:43:49.184Z,102072.19
2022-12-04T10:47:01.997Z,102073.94
2022-12-04T10:50:25.580Z,102054.88
2022-12-04T10:53:35.347Z,102060.94
2022-12-04T10:56:55.585Z,102056.63
2022-12-04T11:00:00.518Z,102054.03
2022-12-04T11:03:25.084Z,102050.53
2022-12-04T11:06:30.454Z,102049.66
2022-12-04T11:09:35.780Z,102047.06
2022-12-04T11:12:59.447Z,102041.03
2022-12-04T11:16:06.843Z,102035.78
2022-12-04T11:19:29.798Z,102034.94
2022-12-04T11:22:55.713Z,102035.78
2022-12-04T11:26:06.632Z,102030.59
2022-12-04T11:29:17.854Z,102027.09
2022-12-04T11:32:35.945Z,102021.88
2022-12-04T11:35:50.640Z,102014.94
2022-12-04T11:39:42.988Z,102008.03
2022-12-04T11:43:03.402Z,102001.91
2022-12-04T11:46:21.736Z,101994.13
2022-12-04T11:49:28.225Z,101994.13
2022-12-04T11:53:10.279Z,101987.22
2022-12-04T11:56:46.207Z,101982.88
2022-12-04T12:00:05.457Z,101984.63
2022-12-04T12:03:39.663Z,101970.75
2022-12-04T12:07:33.658Z,101976.78
2022-12-04T12:10:51.810Z,101982.84
2022-12-04T12:14:08.594Z,101976.75
2022-12-04T12:18:21.060Z,101984.53
2022-12-04T12:21:51.669Z,101978.47
2022-12-04T12:25:41.434Z,101976.72
2022-12-04T12:29:17.064Z,101974.13
2022-12-04T12:32:30.117Z,101975.88
2022-12-04T12:35:42.826Z,101968.09
2022-12-04T12:39:03.585Z,101956.78
2022-12-04T12:42:40.547Z,101967.19
2022-12-04T12:46:20.745Z,101962.88
2022-12-04T12:49:50.958Z,101955.06
2022-12-04T12:53:28.099Z,101955.94
2022-12-04T12:56:47.767Z,101955.09
2022-12-04T13:00:17.406Z,101964.56
2022-12-04T13:03:58.406Z,101956.78
2022-12-04T13:07:30.838Z,101951.59
2022-12-04T13:10:54.897Z,101960.28
2022-12-04T13:14:23.968Z,101949.00
2022-12-04T13:17:42.099Z,101959.38
2022-12-04T13:20:57.589Z,101953.31
2022-12-04T13:24:45.148Z,101948.13
2022-12-04T13:28:33.792Z,101948.13
2022-12-04T13:32:36.130Z,101950.72
2022-12-04T13:36:18.935Z,101933.38
2022-12-04T13:51:42.692Z,101942.00
2022-12-04T13:54:24.552Z,101942.00
2022-12-04T13:58:21.264Z,101931.59
2022-12-04T14:02:22.129Z,101933.34
2022-12-04T14:05:50.447Z,101931.59
2022-12-04T14:09:31.650Z,101930.75
2022-12-04T14:13:17.407Z,101922.97
2022-12-04T14:16:42.706Z,101925.56
2022-12-04T14:27:13.649Z,101911.72
2022-12-04T14:38:01.937Z,101931.66
2022-12-04T14:41:27.415Z,101933.38
2022-12-04T14:50:06.420Z,101948.13
2022-12-04T14:58:43.929Z,101948.13
2022-12-04T15:02:02.687Z,101947.25
2022-12-04T15:16:59.841Z,101935.94
2022-12-04T15:20:46.171Z,101942.06
2022-12-04T15:24:20.159Z,101947.22
2022-12-04T15:27:37.190Z,101942.91
2022-12-04T15:30:55.829Z,101951.56
2022-12-04T15:34:22.505Z,101943.72
2022-12-04T15:38:00.894Z,101948.94
2022-12-04T15:41:45.225Z,101941.13
2022-12-04T15:45:14.006Z,101941.97
2022-12-04T15:48:33.187Z,101936.75
2022-12-04T15:51:39.584Z,101937.59
2022-12-04T15:55:00.346Z,101933.31
2022-12-04T15:58:23.357Z,101927.19
2022-12-04T16:01:52.003Z,101932.41
2022-12-04T16:05:41.668Z,101922.88
2022-12-04T16:08:57.796Z,101921.09
2022-12-04T16:12:26.041Z,101915.94
2022-12-04T16:16:06.347Z,101912.47
2022-12-04T16:19:55.132Z,101918.50
2022-12-04T16:27:05.735Z,101911.53
2022-12-04T16:30:44.122Z,101908.09
2022-12-04T16:38:29.027Z,101906.34
2022-12-04T16:45:37.795Z,101918.47
2022-12-04T16:49:33.173Z,101915.84
2022-12-04T16:53:23.738Z,101921.00
2022-12-04T16:57:29.566Z,101924.47
2022-12-04T17:05:21.514Z,101933.09
2022-12-04T17:08:39.302Z,101936.53
2022-12-04T17:12:20.625Z,101945.16
2022-12-04T17:16:09.382Z,101931.31
2022-12-04T17:19:17.742Z,101947.78
2022-12-04T17:22:47.975Z,101938.22
2022-12-04T17:26:02.430Z,101949.47
2022-12-04T17:29:16.879Z,101945.97
2022-12-04T17:32:31.445Z,101958.09
2022-12-04T17:35:40.991Z,101958.94
2022-12-04T17:38:46.801Z,101958.06
2022-12-04T17:41:51.684Z,101955.41
2022-12-04T17:44:57.203Z,101964.09
2022-12-04T17:48:01.928Z,101964.06
2022-12-04T17:51:15.772Z,101961.47
2022-12-04T17:54:20.331Z,101971.81
2022-12-04T17:57:25.537Z,101967.50
2022-12-04T18:00:30.511Z,101965.75
2022-12-04T18:03:36.383Z,101973.56
2022-12-04T18:06:43.605Z,101977.88
2022-12-04T18:09:50.544Z,101966.66
2022-12-04T18:12:55.268Z,101969.19
2022-12-04T18:16:09.261Z,101976.13
2022-12-04T18:19:14.817Z,101974.38
2022-12-04T18:22:19.142Z,101968.31
2022-12-04T18:25:42.606Z,101974.38
2022-12-04T18:28:48.470Z,101974.34
2022-12-04T18:31:53.548Z,101972.59
2022-12-04T18:34:58.124Z,101982.16
2022-12-04T18:38:03.336Z,101981.28
2022-12-04T18:41:12.060Z,101970.88
2022-12-04T18:44:20.421Z,101979.50
2022-12-04T18:47:26.832Z,101979.53
2022-12-04T18:50:31.542Z,101976.91
2022-12-04T18:53:36.212Z,101982.97
2022-12-04T18:56:41.253Z,101991.66
2022-12-04T18:59:45.905Z,101990.78
2022-12-04T19:02:50.569Z,101996.81
2022-12-04T19:05:55.125Z,101989.06
2022-12-04T19:09:02.650Z,102000.28
2022-12-04T19:12:07.574Z,102008.09
2022-12-04T19:15:12.736Z,102006.34
2022-12-04T19:18:17.644Z,102013.34
2022-12-04T19:21:25.859Z,102015.03
2022-12-04T19:24:38.681Z,102014.19
2022-12-04T19:27:45.820Z,102006.41
2022-12-04T19:30:50.757Z,102017.66
2022-12-04T19:33:59.689Z,102016.81
2022-12-04T19:37:04.415Z,102027.25
2022-12-04T19:40:10.069Z,102027.25
2022-12-04T19:43:14.962Z,102026.38
2022-12-04T19:46:26.426Z,102033.28
2022-12-04T19:49:37.219Z,102035.03
2022-12-04T19:52:45.402Z,102035.97
2022-12-04T19:55:50.481Z,102048.06
2022-12-04T19:58:59.057Z,102042.00
2022-12-04T20:02:28.931Z,102042.03
2022-12-04T20:05:37.698Z,102048.97
2022-12-04T20:08:42.980Z,102049.84
2022-12-04T20:11:49.576Z,102050.72
2022-12-04T20:14:54.319Z,102048.09
2022-12-04T20:17:59.524Z,102048.06
2022-12-04T20:21:11.090Z,102050.69
2022-12-04T20:24:20.029Z,102046.31
2022-12-04T20:27:28.194Z,102045.47
2022-12-04T20:30:35.249Z,102040.28
2022-12-04T20:33:41.363Z,102036.81
2022-12-04T20:36:48.690Z,102042.06
2022-12-04T20:39:57.407Z,102044.63
2022-12-04T20:43:07.592Z,102038.53
2022-12-04T20:46:52.363Z,102038.53
2022-12-04T20:49:57.112Z,102032.44
2022-12-04T20:53:02.780Z,102033.34
2022-12-04T20:56:08.468Z,102029.88
2022-12-04T20:59:16.573Z,102029.03
2022-12-04T21:02:21.391Z,102029.84
2022-12-04T21:05:26.407Z,102020.38
2022-12-04T21:08:50.027Z,102019.44
2022-12-04T21:11:56.428Z,102011.63
2022-12-04T21:15:19.717Z,102009.91
2022-12-04T21:18:24.666Z,102008.16
2022-12-04T21:21:29.907Z,102018.56
2022-12-04T21:24:38.817Z,102012.50
2022-12-04T21:27:43.633Z,102020.31
2022-12-04T21:30:56.699Z,102017.72
2022-12-04T21:34:03.306Z,102017.72
2022-12-04T21:37:11.390Z,102023.75
2022-12-04T21:40:16.351Z,102015.94
2022-12-04T21:43:21.526Z,102017.72
2022-12-04T21:46:28.617Z,102018.56
2022-12-04T21:49:33.652Z,102019.41
2022-12-04T21:52:38.252Z,102015.94
2022-12-04T21:55:57.159Z,102010.75
2022-12-04T21:59:02.242Z,102000.31
2022-12-04T22:02:07.850Z,102008.13
2022-12-04T22:05:12.157Z,101990.75
2022-12-04T22:08:16.647Z,101989.88
2022-12-04T22:11:21.906Z,101983.78
2022-12-04T22:14:26.708Z,101988.09
2022-12-04T22:17:31.352Z,101986.38
2022-12-04T22:20:39.609Z,101988.97
2022-12-04T22:23:44.494Z,101988.09
2022-12-04T22:26:49.270Z,101990.72
2022-12-04T22:29:53.559Z,101994.16
2022-12-04T22:32:58.350Z,101993.28
2022-12-04T22:36:12.490Z,101992.44
2022-12-04T22:39:19.893Z,101988.94
2022-12-04T22:42:27.381Z,101986.34
2022-12-04T22:45:31.877Z,101975.91
2022-12-04T22:48:38.536Z,101974.19
2022-12-04T22:51:43.628Z,101978.50
2022-12-04T22:54:51.349Z,101974.13
2022-12-04T22:57:56.023Z,101971.53
2022-12-04T23:01:00.704Z,101958.50
2022-12-04T23:04:05.680Z,101958.56
2022-12-04T23:07:10.621Z,101957.66
2022-12-04T23:10:15.437Z,101958.50
2022-12-04T23:13:20.221Z,101949.84
2022-12-04T23:16:25.403Z,101950.69
2022-12-04T23:19:31.356Z,101946.38
2022-12-04T23:22:36.145Z,101953.28
2022-12-04T23:25:41.288Z,101953.25
2022-12-04T23:28:46.624Z,101948.94
2022-12-04T23:31:51.404Z,101950.69
2022-12-04T23:34:56.305Z,101955.00
2022-12-04T23:38:01.075Z,101942.00
2022-12-04T23:41:22.230Z,101949.78
2022-12-04T23:44:27.084Z,101950.66
2022-12-04T23:47:31.677Z,101944.59
2022-12-04T23:50:36.399Z,101946.31
2022-12-04T23:53:41.775Z,101948.94
2022-12-04T23:56:49.362Z,101946.31
2022-12-04T23:59:54.503Z,101938.53
